sensor_id;sensor_type;location;lat;lon;timestamp;P1;durP1;ratioP1;P2;durP2;ratioP2
77457;SDS011;66541;49.346;8.648;2023-05-28T00:01:56;6.72;;;1.50;;
77457;SDS011;66541;49.346;8.648;2023-05-28T00:04:21;5.97;;;1.40;;
77457;SDS011;66541;49.346;8.648;2023-05-28T00:06:49;7.88;;;1.48;;
77457;SDS011;66541;49.346;8.648;2023-05-28T00:09:15;8.43;;;2.10;;
77457;SDS011;66541;49.346;8.648;2023-05-28T00:11:42;5.95;;;1.50;;
77457;SDS011;66541;49.346;8.648;2023-05-28T00:14:07;7.15;;;1.52;;
77457;SDS011;66541;49.346;8.648;2023-05-28T00:16:33;8.20;;;1.90;;
77457;SDS011;66541;49.346;8.648;2023-05-28T00:19:00;9.38;;;1.85;;
77457;SDS011;66541;49.346;8.648;2023-05-28T00:21:26;9.70;;;1.80;;
77457;SDS011;66541;49.346;8.648;2023-05-28T00:23:52;6.15;;;1.50;;
77457;SDS011;66541;49.346;8.648;2023-05-28T00:26:17;7.13;;;1.23;;
77457;SDS011;66541;49.346;8.648;2023-05-28T00:28:42;7.38;;;1.40;;
77457;SDS011;66541;49.346;8.648;2023-05-28T00:31:07;6.22;;;1.60;;
77457;SDS011;66541;49.346;8.648;2023-05-28T00:33:33;8.05;;;1.73;;
77457;SDS011;66541;49.346;8.648;2023-05-28T00:35:58;6.40;;;1.30;;
77457;SDS011;66541;49.346;8.648;2023-05-28T00:38:23;9.25;;;2.15;;
77457;SDS011;66541;49.346;8.648;2023-05-28T00:40:49;7.78;;;1.58;;
77457;SDS011;66541;49.346;8.648;2023-05-28T00:43:14;7.53;;;1.27;;
77457;SDS011;66541;49.346;8.648;2023-05-28T00:45:40;8.45;;;1.35;;
77457;SDS011;66541;49.346;8.648;2023-05-28T00:48:06;8.30;;;1.50;;
77457;SDS011;66541;49.346;8.648;2023-05-28T00:50:31;9.07;;;2.08;;
77457;SDS011;66541;49.346;8.648;2023-05-28T00:52:57;6.88;;;1.20;;
77457;SDS011;66541;49.346;8.648;2023-05-28T00:55:23;9.00;;;1.85;;
77457;SDS011;66541;49.346;8.648;2023-05-28T00:57:49;10.30;;;1.52;;
77457;SDS011;66541;49.346;8.648;2023-05-28T01:00:14;8.10;;;1.52;;
77457;SDS011;66541;49.346;8.648;2023-05-28T01:02:41;9.15;;;2.17;;
77457;SDS011;66541;49.346;8.648;2023-05-28T01:05:06;7.60;;;1.80;;
77457;SDS011;66541;49.346;8.648;2023-05-28T01:07:33;7.05;;;1.40;;
77457;SDS011;66541;49.346;8.648;2023-05-28T01:09:58;6.22;;;1.23;;
77457;SDS011;66541;49.346;8.648;2023-05-28T01:12:24;8.57;;;1.50;;
77457;SDS011;66541;49.346;8.648;2023-05-28T01:14:50;6.68;;;1.30;;
77457;SDS011;66541;49.346;8.648;2023-05-28T01:17:16;5.47;;;1.17;;
77457;SDS011;66541;49.346;8.648;2023-05-28T01:19:41;6.15;;;1.35;;
77457;SDS011;66541;49.346;8.648;2023-05-28T01:22:07;8.80;;;1.65;;
77457;SDS011;66541;49.346;8.648;2023-05-28T01:24:34;7.90;;;1.75;;
77457;SDS011;66541;49.346;8.648;2023-05-28T01:27:01;8.75;;;2.15;;
77457;SDS011;66541;49.346;8.648;2023-05-28T01:29:27;9.38;;;1.80;;
77457;SDS011;66541;49.346;8.648;2023-05-28T01:31:52;8.68;;;1.60;;
77457;SDS011;66541;49.346;8.648;2023-05-28T01:34:17;9.10;;;1.77;;
77457;SDS011;66541;49.346;8.648;2023-05-28T01:36:46;6.35;;;1.48;;
77457;SDS011;66541;49.346;8.648;2023-05-28T01:39:15;7.35;;;1.88;;
77457;SDS011;66541;49.346;8.648;2023-05-28T01:41:42;7.15;;;1.52;;
77457;SDS011;66541;49.346;8.648;2023-05-28T01:44:08;8.88;;;1.65;;
77457;SDS011;66541;49.346;8.648;2023-05-28T01:46:37;9.55;;;1.60;;
77457;SDS011;66541;49.346;8.648;2023-05-28T01:49:04;7.72;;;1.50;;
77457;SDS011;66541;49.346;8.648;2023-05-28T01:51:29;7.22;;;1.20;;
77457;SDS011;66541;49.346;8.648;2023-05-28T01:53:56;6.20;;;1.60;;
77457;SDS011;66541;49.346;8.648;2023-05-28T01:56:21;7.95;;;1.70;;
77457;SDS011;66541;49.346;8.648;2023-05-28T01:58:46;6.75;;;1.52;;
77457;SDS011;66541;49.346;8.648;2023-05-28T02:01:20;6.82;;;1.50;;
77457;SDS011;66541;49.346;8.648;2023-05-28T02:03:52;7.78;;;1.58;;
77457;SDS011;66541;49.346;8.648;2023-05-28T02:06:18;8.10;;;1.52;;
77457;SDS011;66541;49.346;8.648;2023-05-28T02:08:44;7.93;;;1.50;;
77457;SDS011;66541;49.346;8.648;2023-05-28T02:11:09;8.55;;;2.40;;
77457;SDS011;66541;49.346;8.648;2023-05-28T02:13:35;7.53;;;1.80;;
77457;SDS011;66541;49.346;8.648;2023-05-28T02:16:00;8.25;;;1.80;;
77457;SDS011;66541;49.346;8.648;2023-05-28T02:18:26;7.82;;;2.10;;
77457;SDS011;66541;49.346;8.648;2023-05-28T02:20:51;8.40;;;1.85;;
77457;SDS011;66541;49.346;8.648;2023-05-28T02:23:16;5.82;;;1.45;;
77457;SDS011;66541;49.346;8.648;2023-05-28T02:25:42;9.10;;;2.30;;
77457;SDS011;66541;49.346;8.648;2023-05-28T02:28:07;8.77;;;1.83;;
77457;SDS011;66541;49.346;8.648;2023-05-28T02:30:32;7.65;;;1.67;;
77457;SDS011;66541;49.346;8.648;2023-05-28T02:32:58;5.88;;;1.38;;
77457;SDS011;66541;49.346;8.648;2023-05-28T02:35:23;7.07;;;1.20;;
77457;SDS011;66541;49.346;8.648;2023-05-28T02:37:49;8.98;;;1.75;;
77457;SDS011;66541;49.346;8.648;2023-05-28T02:40:15;7.45;;;1.70;;
77457;SDS011;66541;49.346;8.648;2023-05-28T02:42:40;8.55;;;1.80;;
77457;SDS011;66541;49.346;8.648;2023-05-28T02:45:05;7.65;;;1.90;;
77457;SDS011;66541;49.346;8.648;2023-05-28T02:47:31;8.07;;;2.33;;
77457;SDS011;66541;49.346;8.648;2023-05-28T02:49:56;9.35;;;2.45;;
77457;SDS011;66541;49.346;8.648;2023-05-28T02:52:22;7.93;;;2.25;;
77457;SDS011;66541;49.346;8.648;2023-05-28T02:54:47;8.10;;;2.15;;
77457;SDS011;66541;49.346;8.648;2023-05-28T02:57:12;8.55;;;2.00;;
77457;SDS011;66541;49.346;8.648;2023-05-28T02:59:38;8.00;;;1.98;;
77457;SDS011;66541;49.346;8.648;2023-05-28T03:02:03;8.27;;;2.60;;
77457;SDS011;66541;49.346;8.648;2023-05-28T03:04:31;10.50;;;2.17;;
77457;SDS011;66541;49.346;8.648;2023-05-28T03:06:56;9.48;;;2.50;;
77457;SDS011;66541;49.346;8.648;2023-05-28T03:09:22;8.48;;;2.67;;
77457;SDS011;66541;49.346;8.648;2023-05-28T03:11:47;10.90;;;2.15;;
77457;SDS011;66541;49.346;8.648;2023-05-28T03:14:12;9.73;;;2.42;;
77457;SDS011;66541;49.346;8.648;2023-05-28T03:16:37;8.95;;;2.10;;
77457;SDS011;66541;49.346;8.648;2023-05-28T03:19:03;8.43;;;2.03;;
77457;SDS011;66541;49.346;8.648;2023-05-28T03:21:28;8.77;;;2.10;;
77457;SDS011;66541;49.346;8.648;2023-05-28T03:23:53;10.77;;;2.15;;
77457;SDS011;66541;49.346;8.648;2023-05-28T03:26:19;9.43;;;2.45;;
77457;SDS011;66541;49.346;8.648;2023-05-28T03:28:44;8.30;;;2.00;;
77457;SDS011;66541;49.346;8.648;2023-05-28T03:31:11;8.85;;;2.15;;
77457;SDS011;66541;49.346;8.648;2023-05-28T03:33:37;10.30;;;2.25;;
77457;SDS011;66541;49.346;8.648;2023-05-28T03:36:02;8.68;;;2.40;;
77457;SDS011;66541;49.346;8.648;2023-05-28T03:38:27;9.20;;;2.35;;
77457;SDS011;66541;49.346;8.648;2023-05-28T03:40:53;10.57;;;2.30;;
77457;SDS011;66541;49.346;8.648;2023-05-28T03:43:18;10.10;;;2.47;;
77457;SDS011;66541;49.346;8.648;2023-05-28T03:45:43;7.20;;;2.10;;
77457;SDS011;66541;49.346;8.648;2023-05-28T03:48:09;11.43;;;2.85;;
77457;SDS011;66541;49.346;8.648;2023-05-28T03:50:34;10.13;;;2.55;;
77457;SDS011;66541;49.346;8.648;2023-05-28T03:53:00;9.52;;;2.38;;
77457;SDS011;66541;49.346;8.648;2023-05-28T03:55:25;11.35;;;2.47;;
77457;SDS011;66541;49.346;8.648;2023-05-28T03:57:50;11.02;;;2.92;;
77457;SDS011;66541;49.346;8.648;2023-05-28T04:00:16;10.50;;;3.67;;
77457;SDS011;66541;49.346;8.648;2023-05-28T04:02:41;9.57;;;2.17;;
77457;SDS011;66541;49.346;8.648;2023-05-28T04:05:06;9.02;;;2.28;;
77457;SDS011;66541;49.346;8.648;2023-05-28T04:07:32;8.85;;;2.28;;
77457;SDS011;66541;49.346;8.648;2023-05-28T04:09:57;9.05;;;2.40;;
77457;SDS011;66541;49.346;8.648;2023-05-28T04:12:23;9.13;;;2.72;;
77457;SDS011;66541;49.346;8.648;2023-05-28T04:14:48;10.25;;;2.95;;
77457;SDS011;66541;49.346;8.648;2023-05-28T04:17:13;11.20;;;2.60;;
77457;SDS011;66541;49.346;8.648;2023-05-28T04:19:39;10.15;;;2.72;;
77457;SDS011;66541;49.346;8.648;2023-05-28T04:22:06;8.43;;;2.38;;
77457;SDS011;66541;49.346;8.648;2023-05-28T04:24:31;10.20;;;2.50;;
77457;SDS011;66541;49.346;8.648;2023-05-28T04:26:56;9.80;;;2.45;;
77457;SDS011;66541;49.346;8.648;2023-05-28T04:29:22;10.23;;;2.33;;
77457;SDS011;66541;49.346;8.648;2023-05-28T04:31:49;9.02;;;2.60;;
77457;SDS011;66541;49.346;8.648;2023-05-28T04:34:15;9.55;;;2.70;;
77457;SDS011;66541;49.346;8.648;2023-05-28T04:36:42;10.40;;;2.45;;
77457;SDS011;66541;49.346;8.648;2023-05-28T04:39:08;12.15;;;2.58;;
77457;SDS011;66541;49.346;8.648;2023-05-28T04:41:33;9.88;;;2.47;;
77457;SDS011;66541;49.346;8.648;2023-05-28T04:43:59;9.80;;;2.50;;
77457;SDS011;66541;49.346;8.648;2023-05-28T04:46:24;9.50;;;2.45;;
77457;SDS011;66541;49.346;8.648;2023-05-28T04:48:50;10.00;;;3.03;;
77457;SDS011;66541;49.346;8.648;2023-05-28T04:51:16;9.10;;;2.78;;
77457;SDS011;66541;49.346;8.648;2023-05-28T04:53:43;10.90;;;2.80;;
77457;SDS011;66541;49.346;8.648;2023-05-28T04:56:08;11.20;;;3.22;;
77457;SDS011;66541;49.346;8.648;2023-05-28T04:58:34;10.63;;;2.50;;
77457;SDS011;66541;49.346;8.648;2023-05-28T05:01:00;10.10;;;3.08;;
77457;SDS011;66541;49.346;8.648;2023-05-28T05:03:25;10.50;;;2.90;;
77457;SDS011;66541;49.346;8.648;2023-05-28T05:05:50;11.25;;;2.97;;
77457;SDS011;66541;49.346;8.648;2023-05-28T05:08:16;10.75;;;2.67;;
77457;SDS011;66541;49.346;8.648;2023-05-28T05:10:41;10.52;;;2.95;;
77457;SDS011;66541;49.346;8.648;2023-05-28T05:13:07;8.73;;;2.28;;
77457;SDS011;66541;49.346;8.648;2023-05-28T05:15:32;10.00;;;2.60;;
77457;SDS011;66541;49.346;8.648;2023-05-28T05:17:58;9.90;;;2.83;;
77457;SDS011;66541;49.346;8.648;2023-05-28T05:20:23;12.95;;;2.92;;
77457;SDS011;66541;49.346;8.648;2023-05-28T05:22:48;12.43;;;2.92;;
77457;SDS011;66541;49.346;8.648;2023-05-28T05:25:14;8.90;;;2.30;;
77457;SDS011;66541;49.346;8.648;2023-05-28T05:31:01;9.98;;;2.88;;
77457;SDS011;66541;49.346;8.648;2023-05-28T05:33:26;8.93;;;2.95;;
77457;SDS011;66541;49.346;8.648;2023-05-28T05:35:52;19.67;;;3.95;;
77457;SDS011;66541;49.346;8.648;2023-05-28T05:38:17;8.40;;;2.67;;
77457;SDS011;66541;49.346;8.648;2023-05-28T05:40:43;8.55;;;2.20;;
77457;SDS011;66541;49.346;8.648;2023-05-28T05:43:08;8.50;;;2.70;;
77457;SDS011;66541;49.346;8.648;2023-05-28T05:45:34;12.02;;;2.40;;
77457;SDS011;66541;49.346;8.648;2023-05-28T05:47:59;12.13;;;2.85;;
77457;SDS011;66541;49.346;8.648;2023-05-28T05:50:24;7.47;;;2.50;;
77457;SDS011;66541;49.346;8.648;2023-05-28T05:52:50;11.15;;;3.10;;
77457;SDS011;66541;49.346;8.648;2023-05-28T05:55:15;9.10;;;2.20;;
77457;SDS011;66541;49.346;8.648;2023-05-28T05:57:40;12.20;;;2.88;;
77457;SDS011;66541;49.346;8.648;2023-05-28T06:00:06;10.93;;;2.80;;
77457;SDS011;66541;49.346;8.648;2023-05-28T06:02:33;9.57;;;3.10;;
77457;SDS011;66541;49.346;8.648;2023-05-28T06:05:00;10.77;;;3.17;;
77457;SDS011;66541;49.346;8.648;2023-05-28T06:07:26;11.18;;;2.95;;
77457;SDS011;66541;49.346;8.648;2023-05-28T06:09:51;8.25;;;2.20;;
77457;SDS011;66541;49.346;8.648;2023-05-28T06:12:17;9.88;;;2.67;;
77457;SDS011;66541;49.346;8.648;2023-05-28T06:17:09;9.57;;;2.58;;
77457;SDS011;66541;49.346;8.648;2023-05-28T06:19:35;9.20;;;2.58;;
77457;SDS011;66541;49.346;8.648;2023-05-28T06:22:00;8.68;;;2.67;;
77457;SDS011;66541;49.346;8.648;2023-05-28T06:24:26;9.30;;;2.88;;
77457;SDS011;66541;49.346;8.648;2023-05-28T06:26:51;9.95;;;2.60;;
77457;SDS011;66541;49.346;8.648;2023-05-28T06:29:16;9.60;;;3.30;;
77457;SDS011;66541;49.346;8.648;2023-05-28T06:31:42;9.10;;;2.63;;
77457;SDS011;66541;49.346;8.648;2023-05-28T06:34:07;10.68;;;2.35;;
77457;SDS011;66541;49.346;8.648;2023-05-28T06:36:32;12.00;;;2.58;;
77457;SDS011;66541;49.346;8.648;2023-05-28T06:39:01;8.27;;;2.53;;
77457;SDS011;66541;49.346;8.648;2023-05-28T06:41:28;8.90;;;2.45;;
77457;SDS011;66541;49.346;8.648;2023-05-28T06:43:53;9.13;;;2.20;;
77457;SDS011;66541;49.346;8.648;2023-05-28T06:46:18;9.93;;;2.63;;
77457;SDS011;66541;49.346;8.648;2023-05-28T06:48:46;8.63;;;2.63;;
77457;SDS011;66541;49.346;8.648;2023-05-28T06:51:11;9.52;;;2.28;;
77457;SDS011;66541;49.346;8.648;2023-05-28T06:53:37;8.75;;;2.38;;
77457;SDS011;66541;49.346;8.648;2023-05-28T06:56:04;8.80;;;2.72;;
77457;SDS011;66541;49.346;8.648;2023-05-28T06:58:30;7.78;;;2.40;;
77457;SDS011;66541;49.346;8.648;2023-05-28T07:00:55;8.90;;;2.55;;
77457;SDS011;66541;49.346;8.648;2023-05-28T07:03:21;9.18;;;2.05;;
77457;SDS011;66541;49.346;8.648;2023-05-28T07:05:46;8.57;;;2.50;;
77457;SDS011;66541;49.346;8.648;2023-05-28T07:08:11;9.93;;;3.17;;
77457;SDS011;66541;49.346;8.648;2023-05-28T07:10:37;8.43;;;2.25;;
77457;SDS011;66541;49.346;8.648;2023-05-28T07:13:02;9.18;;;2.38;;
77457;SDS011;66541;49.346;8.648;2023-05-28T07:15:28;12.82;;;2.75;;
77457;SDS011;66541;49.346;8.648;2023-05-28T07:17:53;8.77;;;2.95;;
77457;SDS011;66541;49.346;8.648;2023-05-28T07:20:18;8.90;;;2.67;;
77457;SDS011;66541;49.346;8.648;2023-05-28T07:22:44;10.00;;;2.40;;
77457;SDS011;66541;49.346;8.648;2023-05-28T07:25:09;9.20;;;2.28;;
77457;SDS011;66541;49.346;8.648;2023-05-28T07:27:34;10.82;;;2.45;;
77457;SDS011;66541;49.346;8.648;2023-05-28T07:30:00;8.70;;;2.50;;
77457;SDS011;66541;49.346;8.648;2023-05-28T07:32:25;8.15;;;1.90;;
77457;SDS011;66541;49.346;8.648;2023-05-28T07:34:50;10.40;;;2.47;;
77457;SDS011;66541;49.346;8.648;2023-05-28T07:37:16;8.70;;;2.33;;
77457;SDS011;66541;49.346;8.648;2023-05-28T07:39:41;8.82;;;2.47;;
77457;SDS011;66541;49.346;8.648;2023-05-28T07:42:06;7.90;;;2.38;;
77457;SDS011;66541;49.346;8.648;2023-05-28T07:44:32;7.57;;;1.83;;
77457;SDS011;66541;49.346;8.648;2023-05-28T07:46:58;9.73;;;2.78;;
77457;SDS011;66541;49.346;8.648;2023-05-28T07:49:23;10.55;;;2.55;;
77457;SDS011;66541;49.346;8.648;2023-05-28T07:51:48;9.27;;;2.55;;
77457;SDS011;66541;49.346;8.648;2023-05-28T07:54:13;8.38;;;2.40;;
77457;SDS011;66541;49.346;8.648;2023-05-28T07:56:39;8.85;;;2.67;;
77457;SDS011;66541;49.346;8.648;2023-05-28T07:59:05;9.27;;;2.10;;
77457;SDS011;66541;49.346;8.648;2023-05-28T08:01:30;9.80;;;2.20;;
77457;SDS011;66541;49.346;8.648;2023-05-28T08:03:56;8.23;;;2.85;;
77457;SDS011;66541;49.346;8.648;2023-05-28T08:06:21;7.75;;;2.63;;
77457;SDS011;66541;49.346;8.648;2023-05-28T08:08:47;8.05;;;2.47;;
77457;SDS011;66541;49.346;8.648;2023-05-28T08:11:12;9.48;;;2.13;;
77457;SDS011;66541;49.346;8.648;2023-05-28T08:13:38;8.90;;;2.67;;
77457;SDS011;66541;49.346;8.648;2023-05-28T08:16:04;8.98;;;2.90;;
77457;SDS011;66541;49.346;8.648;2023-05-28T08:18:29;9.80;;;2.67;;
77457;SDS011;66541;49.346;8.648;2023-05-28T08:20:55;8.65;;;2.72;;
77457;SDS011;66541;49.346;8.648;2023-05-28T08:23:20;10.10;;;2.40;;
77457;SDS011;66541;49.346;8.648;2023-05-28T08:25:46;9.25;;;2.50;;
77457;SDS011;66541;49.346;8.648;2023-05-28T08:28:11;8.57;;;2.78;;
77457;SDS011;66541;49.346;8.648;2023-05-28T08:30:36;9.70;;;2.72;;
77457;SDS011;66541;49.346;8.648;2023-05-28T08:33:02;9.70;;;2.67;;
77457;SDS011;66541;49.346;8.648;2023-05-28T08:35:27;10.05;;;2.95;;
77457;SDS011;66541;49.346;8.648;2023-05-28T08:37:52;9.10;;;2.60;;
77457;SDS011;66541;49.346;8.648;2023-05-28T08:40:18;7.78;;;2.42;;
77457;SDS011;66541;49.346;8.648;2023-05-28T08:42:43;10.05;;;2.80;;
77457;SDS011;66541;49.346;8.648;2023-05-28T08:45:09;10.93;;;3.05;;
77457;SDS011;66541;49.346;8.648;2023-05-28T08:47:35;10.43;;;2.80;;
77457;SDS011;66541;49.346;8.648;2023-05-28T08:50:03;8.38;;;2.50;;
77457;SDS011;66541;49.346;8.648;2023-05-28T08:52:32;8.07;;;2.72;;
77457;SDS011;66541;49.346;8.648;2023-05-28T08:54:59;11.18;;;2.85;;
77457;SDS011;66541;49.346;8.648;2023-05-28T08:57:24;7.00;;;2.40;;
77457;SDS011;66541;49.346;8.648;2023-05-28T08:59:50;9.85;;;3.55;;
77457;SDS011;66541;49.346;8.648;2023-05-28T09:02:16;8.10;;;2.25;;
77457;SDS011;66541;49.346;8.648;2023-05-28T09:04:41;10.40;;;3.17;;
77457;SDS011;66541;49.346;8.648;2023-05-28T09:07:11;10.20;;;2.53;;
77457;SDS011;66541;49.346;8.648;2023-05-28T09:09:37;9.65;;;2.75;;
77457;SDS011;66541;49.346;8.648;2023-05-28T09:12:03;9.75;;;2.50;;
77457;SDS011;66541;49.346;8.648;2023-05-28T09:14:32;11.90;;;3.28;;
77457;SDS011;66541;49.346;8.648;2023-05-28T09:17:03;13.30;;;2.53;;
77457;SDS011;66541;49.346;8.648;2023-05-28T09:19:28;9.95;;;2.72;;
77457;SDS011;66541;49.346;8.648;2023-05-28T09:21:54;10.45;;;3.13;;
77457;SDS011;66541;49.346;8.648;2023-05-28T09:24:22;9.27;;;2.60;;
77457;SDS011;66541;49.346;8.648;2023-05-28T09:26:47;9.95;;;2.60;;
77457;SDS011;66541;49.346;8.648;2023-05-28T09:29:13;20.70;;;3.65;;
77457;SDS011;66541;49.346;8.648;2023-05-28T09:31:38;7.35;;;2.20;;
77457;SDS011;66541;49.346;8.648;2023-05-28T09:34:04;21.65;;;3.28;;
77457;SDS011;66541;49.346;8.648;2023-05-28T09:36:29;12.10;;;2.40;;
77457;SDS011;66541;49.346;8.648;2023-05-28T09:38:55;18.23;;;3.25;;
77457;SDS011;66541;49.346;8.648;2023-05-28T09:41:24;9.27;;;2.83;;
77457;SDS011;66541;49.346;8.648;2023-05-28T09:43:57;8.35;;;2.53;;
77457;SDS011;66541;49.346;8.648;2023-05-28T09:46:32;11.15;;;3.10;;
77457;SDS011;66541;49.346;8.648;2023-05-28T09:48:59;9.18;;;2.63;;
77457;SDS011;66541;49.346;8.648;2023-05-28T09:51:26;8.93;;;2.67;;
77457;SDS011;66541;49.346;8.648;2023-05-28T09:53:56;8.60;;;2.60;;
77457;SDS011;66541;49.346;8.648;2023-05-28T09:56:23;9.43;;;2.58;;
77457;SDS011;66541;49.346;8.648;2023-05-28T09:58:52;7.70;;;2.17;;
77457;SDS011;66541;49.346;8.648;2023-05-28T10:01:19;8.00;;;2.97;;
77457;SDS011;66541;49.346;8.648;2023-05-28T10:04:07;8.88;;;2.45;;
77457;SDS011;66541;49.346;8.648;2023-05-28T10:06:38;8.02;;;2.63;;
77457;SDS011;66541;49.346;8.648;2023-05-28T10:09:03;8.93;;;2.53;;
77457;SDS011;66541;49.346;8.648;2023-05-28T10:11:34;7.68;;;2.45;;
77457;SDS011;66541;49.346;8.648;2023-05-28T10:14:03;11.27;;;2.95;;
77457;SDS011;66541;49.346;8.648;2023-05-28T10:16:29;9.70;;;2.75;;
77457;SDS011;66541;49.346;8.648;2023-05-28T10:18:56;9.77;;;2.92;;
77457;SDS011;66541;49.346;8.648;2023-05-28T10:21:21;8.45;;;2.42;;
77457;SDS011;66541;49.346;8.648;2023-05-28T10:23:47;9.23;;;2.90;;
77457;SDS011;66541;49.346;8.648;2023-05-28T10:26:13;7.28;;;1.92;;
77457;SDS011;66541;49.346;8.648;2023-05-28T10:28:39;10.77;;;3.28;;
77457;SDS011;66541;49.346;8.648;2023-05-28T10:31:06;8.60;;;2.25;;
77457;SDS011;66541;49.346;8.648;2023-05-28T10:33:40;8.40;;;2.72;;
77457;SDS011;66541;49.346;8.648;2023-05-28T10:36:10;9.38;;;2.92;;
77457;SDS011;66541;49.346;8.648;2023-05-28T10:41:18;11.27;;;2.55;;
77457;SDS011;66541;49.346;8.648;2023-05-28T10:43:45;7.60;;;1.90;;
77457;SDS011;66541;49.346;8.648;2023-05-28T10:46:17;9.23;;;2.58;;
77457;SDS011;66541;49.346;8.648;2023-05-28T10:57:29;7.28;;;2.08;;
77457;SDS011;66541;49.346;8.648;2023-05-28T11:00:04;7.43;;;2.17;;
77457;SDS011;66541;49.346;8.648;2023-05-28T11:02:35;7.22;;;2.40;;
77457;SDS011;66541;49.346;8.648;2023-05-28T11:05:01;7.95;;;2.03;;
77457;SDS011;66541;49.346;8.648;2023-05-28T11:07:32;7.85;;;3.05;;
77457;SDS011;66541;49.346;8.648;2023-05-28T11:09:58;8.13;;;1.98;;
77457;SDS011;66541;49.346;8.648;2023-05-28T11:12:28;7.97;;;3.13;;
77457;SDS011;66541;49.346;8.648;2023-05-28T11:14:54;8.07;;;2.60;;
77457;SDS011;66541;49.346;8.648;2023-05-28T11:17:20;8.50;;;2.03;;
77457;SDS011;66541;49.346;8.648;2023-05-28T11:19:49;8.23;;;2.75;;
77457;SDS011;66541;49.346;8.648;2023-05-28T11:22:16;10.48;;;2.55;;
77457;SDS011;66541;49.346;8.648;2023-05-28T11:24:58;9.82;;;2.60;;
77457;SDS011;66541;49.346;8.648;2023-05-28T11:27:29;8.82;;;2.42;;
77457;SDS011;66541;49.346;8.648;2023-05-28T11:29:57;8.45;;;1.85;;
77457;SDS011;66541;49.346;8.648;2023-05-28T11:32:24;9.60;;;3.15;;
77457;SDS011;66541;49.346;8.648;2023-05-28T11:34:50;8.55;;;2.97;;
77457;SDS011;66541;49.346;8.648;2023-05-28T11:37:21;9.38;;;2.75;;
77457;SDS011;66541;49.346;8.648;2023-05-28T11:39:49;7.55;;;2.47;;
77457;SDS011;66541;49.346;8.648;2023-05-28T11:42:15;9.25;;;2.30;;
77457;SDS011;66541;49.346;8.648;2023-05-28T11:44:45;7.25;;;2.80;;
77457;SDS011;66541;49.346;8.648;2023-05-28T11:47:11;7.47;;;2.35;;
77457;SDS011;66541;49.346;8.648;2023-05-28T11:49:36;7.47;;;1.92;;
77457;SDS011;66541;49.346;8.648;2023-05-28T11:52:02;7.53;;;2.58;;
77457;SDS011;66541;49.346;8.648;2023-05-28T11:54:28;9.60;;;2.83;;
77457;SDS011;66541;49.346;8.648;2023-05-28T11:56:53;10.20;;;3.25;;
77457;SDS011;66541;49.346;8.648;2023-05-28T11:59:20;8.10;;;2.40;;
77457;SDS011;66541;49.346;8.648;2023-05-28T12:01:46;7.15;;;2.50;;
77457;SDS011;66541;49.346;8.648;2023-05-28T12:04:11;7.05;;;2.45;;
77457;SDS011;66541;49.346;8.648;2023-05-28T12:06:52;8.60;;;2.92;;
77457;SDS011;66541;49.346;8.648;2023-05-28T12:09:19;8.23;;;2.63;;
77457;SDS011;66541;49.346;8.648;2023-05-28T12:11:44;8.07;;;2.72;;
77457;SDS011;66541;49.346;8.648;2023-05-28T12:14:10;7.97;;;2.40;;
